Time;durP1;ratioP1;P1;durP2;ratioP2;P2;SDS_P1;SDS_P2;PMS_P1;PMS_P2;Temp;Humidity;BMP_temperature;BMP_pressure;BME280_temperature;BME280_humidity;BME280_pressure;Samples;Min_cycle;Max_cycle;Signal;HPM_P1;HPM_P2
2023/05/09 00:01:30;;;;;;;5.13;2.40;;;8.40;99.70;;;;;;5059825;28;21000;-78
2023/05/09 00:03:57;;;;;;;9.33;2.50;;;8.30;99.80;;;;;;5063119;28;20472;-80
2023/05/09 00:06:26;;;;;;;3.40;3.10;;;8.30;99.80;;;;;;5063461;28;20480;-78
2023/05/09 00:08:53;;;;;;;2.67;2.47;;;8.20;99.90;;;;;;5063188;28;20814;-80
2023/05/09 00:11:21;;;;;;;3.63;2.53;;;8.10;99.90;;;;;;5066515;28;20432;-78
2023/05/09 00:13:50;;;;;;;2.00;1.90;;;8.10;99.90;;;;;;5054650;28;20433;-78
2023/05/09 00:16:19;;;;;;;5.03;2.80;;;8.10;99.90;;;;;;5055921;28;20436;-79
2023/05/09 00:18:47;;;;;;;4.73;4.20;;;8.10;99.90;;;;;;5051705;28;20493;-78
2023/05/09 00:21:14;;;;;;;4.07;2.90;;;8.10;99.90;;;;;;5062901;28;20913;-78
2023/05/09 00:23:41;;;;;;;2.30;2.10;;;8.10;99.90;;;;;;5057312;28;20433;-78
2023/05/09 00:26:08;;;;;;;4.07;3.67;;;8.10;99.90;;;;;;5063366;28;20509;-79
2023/05/09 00:28:35;;;;;;;3.40;3.13;;;8.10;99.90;;;;;;5057698;28;20472;-78
2023/05/09 00:31:04;;;;;;;2.90;2.70;;;8.00;99.90;;;;;;5066082;28;20832;-80
2023/05/09 00:33:31;;;;;;;4.53;2.67;;;8.00;99.90;;;;;;5053431;28;20449;-79
2023/05/09 00:35:58;;;;;;;3.57;2.67;;;7.90;99.90;;;;;;5061282;28;20448;-78
2023/05/09 00:38:25;;;;;;;5.40;3.40;;;7.90;99.90;;;;;;5064415;28;20559;-76
2023/05/09 00:40:52;;;;;;;6.00;3.77;;;7.80;99.90;;;;;;5063110;28;20476;-79
2023/05/09 00:43:19;;;;;;;3.53;2.90;;;7.80;99.90;;;;;;5057421;28;20609;-78
2023/05/09 00:45:46;;;;;;;4.00;3.37;;;7.80;99.90;;;;;;5059029;28;20464;-77
2023/05/09 00:48:15;;;;;;;4.70;3.40;;;7.70;99.90;;;;;;5065486;28;20525;-77
2023/05/09 00:50:42;;;;;;;5.77;4.63;;;7.80;99.90;;;;;;5063074;28;20436;-79
2023/05/09 00:53:10;;;;;;;3.93;2.93;;;7.70;99.90;;;;;;5055070;28;20492;-78
2023/05/09 00:55:37;;;;;;;7.60;2.83;;;7.60;99.90;;;;;;5058726;28;20843;-77
2023/05/09 00:58:04;;;;;;;5.03;3.30;;;7.60;99.90;;;;;;5061076;28;20971;-79
2023/05/09 01:00:31;;;;;;;4.50;3.30;;;7.60;99.90;;;;;;5059663;28;20579;-80
2023/05/09 01:02:58;;;;;;;4.13;3.33;;;7.60;99.90;;;;;;5059804;28;20935;-78
2023/05/09 01:05:36;;;;;;;4.40;3.33;;;7.60;99.90;;;;;;5063717;28;20440;-78
2023/05/09 01:08:10;;;;;;;4.07;2.83;;;7.50;99.90;;;;;;5057709;28;20460;-78
2023/05/09 01:10:43;;;;;;;4.33;3.93;;;7.50;99.90;;;;;;5063041;28;21106;-78
2023/05/09 01:13:19;;;;;;;3.53;3.00;;;7.50;99.90;;;;;;5056718;28;20445;-78
2023/05/09 01:15:54;;;;;;;3.90;3.60;;;7.40;99.90;;;;;;5055091;28;20493;-78
2023/05/09 01:18:28;;;;;;;5.07;3.70;;;7.40;99.90;;;;;;5054195;28;20480;-79
2023/05/09 01:21:03;;;;;;;3.30;3.00;;;7.40;99.90;;;;;;5056283;28;20440;-76
2023/05/09 01:23:54;;;;;;;3.40;3.00;;;7.40;99.90;;;;;;5064341;28;20456;-79
2023/05/09 01:26:32;;;;;;;4.20;3.80;;;7.40;99.90;;;;;;5061542;28;20523;-78
2023/05/09 01:29:27;;;;;;;3.97;3.47;;;7.30;99.90;;;;;;5062605;28;20521;-77
2023/05/09 01:31:57;;;;;;;3.27;2.57;;;7.30;99.90;;;;;;5068658;28;20452;-77
2023/05/09 01:34:28;;;;;;;4.40;3.47;;;7.30;99.90;;;;;;5071000;28;20447;-78
2023/05/09 01:36:59;;;;;;;4.30;2.90;;;7.20;99.90;;;;;;5070991;28;20485;-80
2023/05/09 01:39:27;;;;;;;3.63;3.00;;;7.20;99.90;;;;;;5069498;28;20483;-78
2023/05/09 01:41:57;;;;;;;2.67;2.47;;;7.20;99.90;;;;;;5069951;28;20443;-78
2023/05/09 01:44:27;;;;;;;4.23;3.83;;;7.20;99.90;;;;;;5069105;28;20444;-78
2023/05/09 01:46:56;;;;;;;4.27;3.03;;;7.20;99.90;;;;;;5069802;28;20458;-78
2023/05/09 01:49:23;;;;;;;5.63;2.90;;;7.20;99.90;;;;;;5063454;28;20559;-79
2023/05/09 01:51:52;;;;;;;4.37;3.50;;;7.10;99.90;;;;;;5066938;28;20489;-78
2023/05/09 01:54:22;;;;;;;3.70;3.00;;;7.10;99.90;;;;;;5069078;28;20839;-78
2023/05/09 01:56:50;;;;;;;4.97;3.30;;;7.20;99.90;;;;;;5066196;28;20464;-79
2023/05/09 01:59:18;;;;;;;5.03;4.13;;;7.10;99.90;;;;;;5066862;28;20468;-79
2023/05/09 02:01:47;;;;;;;3.90;3.50;;;7.10;99.90;;;;;;5055888;28;20468;-78
2023/05/09 02:04:17;;;;;;;3.47;3.17;;;7.10;99.90;;;;;;5058634;28;20871;-78
2023/05/09 02:06:48;;;;;;;5.10;3.30;;;7.10;99.90;;;;;;5057134;28;20863;-77
2023/05/09 02:09:15;;;;;;;5.87;3.80;;;7.10;99.90;;;;;;5058477;28;20527;-78
2023/05/09 02:11:42;;;;;;;3.13;2.53;;;7.00;99.90;;;;;;5065590;28;20466;-79
2023/05/09 02:14:09;;;;;;;5.40;3.40;;;7.00;99.90;;;;;;5057639;28;20587;-78
2023/05/09 02:16:38;;;;;;;5.03;3.47;;;7.00;99.90;;;;;;5057155;28;21009;-77
2023/05/09 02:19:05;;;;;;;4.03;3.50;;;7.00;99.90;;;;;;5064228;28;20480;-78
2023/05/09 02:21:33;;;;;;;5.93;4.07;;;6.90;99.90;;;;;;5060736;28;20464;-77
2023/05/09 02:24:01;;;;;;;7.90;4.10;;;6.90;99.90;;;;;;5060921;28;20501;-81
2023/05/09 02:26:29;;;;;;;4.20;3.40;;;6.90;99.90;;;;;;5058719;28;20539;-78
2023/05/09 02:28:56;;;;;;;5.60;3.73;;;6.90;99.90;;;;;;5065182;28;20465;-79
2023/05/09 02:31:27;;;;;;;3.47;3.17;;;6.90;99.90;;;;;;5065699;28;20522;-78
2023/05/09 02:33:55;;;;;;;4.93;3.90;;;6.80;99.90;;;;;;5057308;28;20440;-78
2023/05/09 02:36:23;;;;;;;3.53;3.17;;;6.80;99.90;;;;;;5062599;28;20464;-77
2023/05/09 02:38:52;;;;;;;4.27;3.23;;;6.80;99.90;;;;;;5063922;28;20550;-78
2023/05/09 02:41:19;;;;;;;3.50;2.90;;;6.70;99.90;;;;;;5067300;28;20522;-82
2023/05/09 02:43:46;;;;;;;6.80;4.00;;;6.70;99.90;;;;;;5056793;28;20508;-77
2023/05/09 02:46:13;;;;;;;5.43;3.40;;;6.70;99.90;;;;;;5060842;28;20460;-78
2023/05/09 02:48:40;;;;;;;5.23;3.17;;;6.70;99.90;;;;;;5061309;28;20511;-80
2023/05/09 02:51:07;;;;;;;3.30;2.90;;;6.60;99.90;;;;;;5063971;28;20440;-77
2023/05/09 02:53:34;;;;;;;6.17;3.07;;;6.60;99.90;;;;;;5065358;28;20453;-82
2023/05/09 02:56:02;;;;;;;4.13;3.30;;;6.70;99.90;;;;;;5066836;28;20448;-78
2023/05/09 02:58:29;;;;;;;7.00;4.37;;;6.60;99.90;;;;;;5067822;28;20591;-80
2023/05/09 03:00:56;;;;;;;4.07;3.40;;;6.60;99.90;;;;;;5065427;28;20452;-78
2023/05/09 03:03:24;;;;;;;3.73;3.43;;;6.60;99.90;;;;;;5053993;28;20523;-77
2023/05/09 03:05:51;;;;;;;2.73;2.40;;;6.60;99.90;;;;;;5065542;28;20541;-77
2023/05/09 03:08:18;;;;;;;3.40;3.03;;;6.50;99.90;;;;;;5064537;28;20460;-78
2023/05/09 03:10:45;;;;;;;3.60;3.27;;;6.60;99.90;;;;;;5063255;28;20448;-81
2023/05/09 03:13:13;;;;;;;5.40;4.90;;;6.50;99.90;;;;;;5058148;28;20445;-78
2023/05/09 03:15:40;;;;;;;5.77;3.40;;;6.50;99.90;;;;;;5066428;28;20509;-77
2023/05/09 03:18:07;;;;;;;6.60;3.20;;;6.40;99.90;;;;;;5067816;28;20445;-77
2023/05/09 03:20:34;;;;;;;5.07;3.70;;;6.40;99.90;;;;;;5062153;28;21065;-81
2023/05/09 03:23:01;;;;;;;5.27;3.47;;;6.40;99.90;;;;;;5054498;28;21263;-77
2023/05/09 03:25:28;;;;;;;4.80;3.60;;;6.40;99.90;;;;;;5059543;28;20464;-77
2023/05/09 03:27:55;;;;;;;4.10;3.70;;;6.40;99.90;;;;;;5063675;28;20448;-76
2023/05/09 03:30:25;;;;;;;3.47;3.10;;;6.40;99.90;;;;;;5064625;28;20456;-76
2023/05/09 03:32:52;;;;;;;3.47;3.10;;;6.30;99.90;;;;;;5054720;28;20541;-77
2023/05/09 03:35:19;;;;;;;3.90;2.83;;;6.30;99.90;;;;;;5062800;28;20463;-77
2023/05/09 03:37:46;;;;;;;4.80;3.20;;;6.30;99.90;;;;;;5063648;28;20460;-80
2023/05/09 03:40:13;;;;;;;4.63;3.40;;;6.30;99.90;;;;;;5060413;28;20481;-77
2023/05/09 03:42:40;;;;;;;4.07;3.67;;;6.30;99.90;;;;;;5058913;28;20467;-78
2023/05/09 03:45:08;;;;;;;3.80;2.80;;;6.30;99.90;;;;;;5064606;28;20445;-77
2023/05/09 03:47:36;;;;;;;4.43;3.10;;;6.30;99.90;;;;;;5064733;28;20447;-79
2023/05/09 03:50:04;;;;;;;4.30;2.90;;;6.30;99.90;;;;;;5064317;28;20456;-77
2023/05/09 03:52:31;;;;;;;4.00;3.43;;;6.30;99.90;;;;;;5058218;28;20444;-77
2023/05/09 03:54:58;;;;;;;4.07;3.60;;;6.30;99.90;;;;;;5065084;28;20441;-77
2023/05/09 03:57:25;;;;;;;3.70;3.40;;;6.30;99.90;;;;;;5061231;28;20492;-77
2023/05/09 03:59:52;;;;;;;3.77;3.13;;;6.30;99.90;;;;;;5061193;28;20512;-78
2023/05/09 04:02:19;;;;;;;4.47;4.03;;;6.30;99.90;;;;;;5058001;28;21021;-81
2023/05/09 04:04:48;;;;;;;3.87;3.07;;;6.30;99.90;;;;;;5060534;28;20441;-80
2023/05/09 04:07:16;;;;;;;4.10;3.67;;;6.30;99.90;;;;;;5056197;28;20457;-77
2023/05/09 04:09:43;;;;;;;5.00;3.30;;;6.30;99.90;;;;;;5053093;28;20472;-77
2023/05/09 04:12:10;;;;;;;4.57;4.10;;;6.30;99.90;;;;;;5055635;28;20449;-80
2023/05/09 04:14:37;;;;;;;6.40;3.23;;;6.40;99.90;;;;;;5050028;28;20453;-77
2023/05/09 04:17:04;;;;;;;7.93;3.67;;;6.40;99.90;;;;;;5059795;28;20476;-78
2023/05/09 04:19:31;;;;;;;4.90;3.33;;;6.40;99.90;;;;;;5064312;28;20479;-78
2023/05/09 04:21:59;;;;;;;7.53;3.17;;;6.50;99.90;;;;;;5066443;28;20440;-78
2023/05/09 04:24:26;;;;;;;4.57;3.87;;;6.40;99.90;;;;;;5062693;28;20923;-79
2023/05/09 04:26:53;;;;;;;3.40;3.10;;;6.40;99.90;;;;;;5059478;28;20936;-79
2023/05/09 04:29:20;;;;;;;3.97;3.30;;;6.50;99.90;;;;;;5058643;28;20476;-77
2023/05/09 04:31:47;;;;;;;4.63;3.67;;;6.40;99.90;;;;;;5067581;28;20444;-79
2023/05/09 04:34:14;;;;;;;3.37;3.07;;;6.40;99.90;;;;;;5059362;28;20978;-79
2023/05/09 04:36:41;;;;;;;4.77;3.40;;;6.40;99.90;;;;;;5061787;28;20461;-78
2023/05/09 04:39:10;;;;;;;7.67;3.27;;;6.40;99.90;;;;;;5061632;28;20445;-77
2023/05/09 04:41:48;;;;;;;4.13;2.87;;;6.40;99.90;;;;;;5057817;28;20469;-77
2023/05/09 04:44:15;;;;;;;3.60;3.30;;;6.30;99.90;;;;;;5064078;28;20440;-79
2023/05/09 04:46:43;;;;;;;3.30;2.70;;;6.40;99.90;;;;;;5073195;28;20440;-77
2023/05/09 04:49:09;;;;;;;3.40;2.70;;;6.50;99.90;;;;;;5064072;28;20984;-79
2023/05/09 04:51:36;;;;;;;7.67;3.80;;;6.50;99.90;;;;;;5057278;28;20445;-78
2023/05/09 04:54:04;;;;;;;5.97;3.10;;;6.50;99.90;;;;;;5053484;28;20562;-79
2023/05/09 04:56:32;;;;;;;5.70;3.90;;;6.40;99.90;;;;;;5054349;28;20513;-79
2023/05/09 04:58:59;;;;;;;5.03;3.40;;;6.40;99.90;;;;;;5063116;28;20530;-77
2023/05/09 05:01:26;;;;;;;3.93;2.83;;;6.40;99.90;;;;;;5059412;28;20463;-79
2023/05/09 05:03:53;;;;;;;4.90;4.10;;;6.40;99.90;;;;;;5058682;28;21195;-78
2023/05/09 05:06:20;;;;;;;5.60;3.87;;;6.40;99.90;;;;;;5060526;28;20841;-78
2023/05/09 05:08:47;;;;;;;6.10;4.00;;;6.50;99.90;;;;;;5060158;28;20457;-79
2023/05/09 05:11:16;;;;;;;3.90;3.17;;;6.50;99.90;;;;;;5051242;28;21006;-79
2023/05/09 05:13:44;;;;;;;3.13;2.87;;;6.50;99.90;;;;;;5054817;28;20977;-81
2023/05/09 05:16:11;;;;;;;3.77;3.37;;;6.50;99.90;;;;;;5047949;28;20503;-81
2023/05/09 05:18:38;;;;;;;4.97;3.50;;;6.60;99.90;;;;;;5055731;28;20494;-78
2023/05/09 05:21:05;;;;;;;5.03;4.63;;;6.60;99.90;;;;;;5053458;28;20877;-78
2023/05/09 05:23:32;;;;;;;6.90;4.60;;;6.80;99.90;;;;;;5063019;28;20456;-79
2023/05/09 05:25:59;;;;;;;4.90;3.70;;;7.00;99.90;;;;;;5048067;28;21058;-78
2023/05/09 05:28:26;;;;;;;4.63;4.17;;;7.00;99.90;;;;;;5060177;28;21054;-78
2023/05/09 05:30:54;;;;;;;6.30;3.63;;;7.20;99.90;;;;;;5060147;28;20452;-80
2023/05/09 05:33:21;;;;;;;5.93;4.70;;;7.10;99.90;;;;;;5063688;28;20460;-77
2023/05/09 05:35:48;;;;;;;6.70;3.87;;;7.20;99.90;;;;;;5065005;28;20464;-80
2023/05/09 05:38:15;;;;;;;5.03;4.10;;;7.10;99.90;;;;;;5060093;28;20456;-78
2023/05/09 05:40:42;;;;;;;5.93;4.00;;;7.20;99.90;;;;;;5062058;28;20476;-78
2023/05/09 05:43:09;;;;;;;7.23;4.47;;;7.40;99.90;;;;;;5057915;28;20994;-78
2023/05/09 05:45:36;;;;;;;8.40;3.97;;;7.50;99.90;;;;;;5062835;28;20506;-78
2023/05/09 05:48:05;;;;;;;4.73;3.37;;;7.70;99.90;;;;;;5063750;28;20558;-81
2023/05/09 05:50:32;;;;;;;3.40;3.10;;;7.70;99.90;;;;;;5054030;28;20464;-81
2023/05/09 05:52:59;;;;;;;5.67;3.40;;;7.70;99.90;;;;;;5062144;28;20452;-80
2023/05/09 05:55:26;;;;;;;4.90;3.63;;;7.90;99.90;;;;;;5052971;28;20530;-80
2023/05/09 05:57:53;;;;;;;4.93;4.37;;;7.90;99.90;;;;;;5065894;28;20491;-78
2023/05/09 06:00:20;;;;;;;6.53;4.07;;;8.10;99.90;;;;;;5057478;28;20531;-78
2023/05/09 06:02:47;;;;;;;4.77;4.20;;;8.30;99.90;;;;;;5057220;28;20867;-78
2023/05/09 06:05:18;;;;;;;3.53;3.23;;;8.50;99.90;;;;;;5063248;28;20507;-79
2023/05/09 06:07:45;;;;;;;4.30;3.90;;;8.80;99.90;;;;;;5069174;28;20491;-80
2023/05/09 06:10:14;;;;;;;5.73;4.20;;;8.70;99.90;;;;;;5059473;28;20471;-80
2023/05/09 06:12:41;;;;;;;5.37;3.97;;;8.60;99.90;;;;;;5073044;28;20448;-81
2023/05/09 06:15:09;;;;;;;5.70;4.73;;;8.70;99.90;;;;;;5063433;28;20475;-78
2023/05/09 06:17:36;;;;;;;5.27;4.00;;;8.60;99.90;;;;;;5060600;28;20444;-78
2023/05/09 06:20:03;;;;;;;4.20;3.40;;;8.40;99.90;;;;;;5061025;28;20509;-79
2023/05/09 06:22:31;;;;;;;4.13;3.43;;;8.60;99.90;;;;;;5061070;28;20524;-81
2023/05/09 06:24:58;;;;;;;4.23;3.83;;;8.90;99.90;;;;;;5061171;28;20525;-79
2023/05/09 06:27:25;;;;;;;4.13;3.70;;;8.70;99.90;;;;;;5069215;28;20502;-78
2023/05/09 06:29:53;;;;;;;5.70;4.90;;;8.80;99.90;;;;;;5064154;28;20463;-78
2023/05/09 06:32:20;;;;;;;6.47;4.10;;;9.10;99.90;;;;;;5059557;28;20448;-79
2023/05/09 06:34:47;;;;;;;6.20;4.23;;;9.20;99.90;;;;;;5055877;28;20449;-80
2023/05/09 06:37:14;;;;;;;7.67;4.37;;;9.40;99.90;;;;;;5066032;28;20929;-79
2023/05/09 06:39:42;;;;;;;7.30;3.83;;;9.50;99.90;;;;;;5055229;28;20433;-77
2023/05/09 06:42:09;;;;;;;7.40;4.17;;;9.60;99.90;;;;;;5064768;28;20460;-82
2023/05/09 06:44:36;;;;;;;8.90;3.67;;;9.50;99.90;;;;;;5066011;28;20452;-79
2023/05/09 06:47:03;;;;;;;8.80;4.20;;;9.70;99.90;;;;;;5066995;28;20441;-76
2023/05/09 06:49:30;;;;;;;4.30;3.90;;;9.70;99.90;;;;;;5064340;28;20766;-80
2023/05/09 06:51:57;;;;;;;6.60;3.77;;;9.80;99.90;;;;;;5054915;28;20464;-78
2023/05/09 06:54:24;;;;;;;5.47;4.93;;;9.90;99.90;;;;;;5060058;28;20441;-78
2023/05/09 06:56:52;;;;;;;4.17;3.40;;;10.20;99.90;;;;;;5056200;28;20461;-78
2023/05/09 06:59:19;;;;;;;5.80;3.77;;;10.30;99.60;;;;;;5063911;28;20456;-80
2023/05/09 07:01:46;;;;;;;7.93;4.87;;;10.80;98.90;;;;;;5050414;28;20485;-78
2023/05/09 07:04:13;;;;;;;4.93;4.43;;;10.70;99.90;;;;;;5062323;28;20498;-82
2023/05/09 07:06:40;;;;;;;7.60;5.40;;;10.80;99.40;;;;;;5066193;28;20440;-78
2023/05/09 07:09:07;;;;;;;4.63;3.83;;;10.80;99.90;;;;;;5062702;28;20925;-78
2023/05/09 07:11:35;;;;;;;4.77;4.30;;;10.90;99.40;;;;;;5065813;28;20476;-76
2023/05/09 07:14:04;;;;;;;5.37;3.83;;;10.90;99.20;;;;;;5063235;28;20464;-78
2023/05/09 07:16:31;;;;;;;5.17;4.77;;;11.00;99.40;;;;;;5067353;28;20506;-77
2023/05/09 07:18:58;;;;;;;5.20;4.70;;;11.00;99.20;;;;;;5067884;28;20494;-79
2023/05/09 07:21:25;;;;;;;5.43;4.37;;;11.00;98.80;;;;;;5064542;28;20480;-77
2023/05/09 07:23:51;;;;;;;5.00;3.27;;;11.20;99.10;;;;;;5064590;28;20449;-78
2023/05/09 07:26:18;;;;;;;4.83;4.43;;;11.50;97.70;;;;;;5067426;28;20553;-77
2023/05/09 07:28:45;;;;;;;8.43;5.17;;;11.70;96.60;;;;;;5066915;28;20460;-78
2023/05/09 07:31:14;;;;;;;5.13;4.57;;;12.00;97.80;;;;;;5056387;28;20499;-77
2023/05/09 07:33:41;;;;;;;5.00;4.50;;;12.30;97.60;;;;;;5068271;28;20436;-75
2023/05/09 07:36:11;;;;;;;5.60;4.70;;;12.00;97.10;;;;;;5058914;28;20450;-75
2023/05/09 07:38:38;;;;;;;5.60;4.83;;;11.90;97.70;;;;;;5064519;28;20456;-75
2023/05/09 07:41:06;;;;;;;4.93;4.43;;;12.20;98.60;;;;;;5066106;28;20476;-75
2023/05/09 07:43:33;;;;;;;5.73;4.17;;;12.10;99.30;;;;;;5067681;28;20443;-75
2023/05/09 07:46:00;;;;;;;6.37;5.37;;;11.50;97.40;;;;;;5061220;28;20465;-75
2023/05/09 07:48:29;;;;;;;7.90;7.20;;;11.50;97.50;;;;;;5066983;28;21034;-73
2023/05/09 07:50:56;;;;;;;9.63;4.43;;;11.70;97.70;;;;;;5062887;28;20476;-79
2023/05/09 07:53:23;;;;;;;5.50;5.00;;;12.00;98.20;;;;;;5067903;28;20440;-75
2023/05/09 07:55:50;;;;;;;6.83;5.03;;;12.00;99.90;;;;;;5071065;28;20590;-75
2023/05/09 07:58:17;;;;;;;8.70;4.97;;;12.20;99.10;;;;;;5074773;28;20436;-77
2023/05/09 08:00:44;;;;;;;5.33;4.83;;;12.30;98.00;;;;;;5072567;28;21557;-75
2023/05/09 08:03:10;;;;;;;7.03;4.70;;;12.10;98.20;;;;;;5071110;28;20515;-76
2023/05/09 08:05:39;;;;;;;5.60;4.40;;;12.20;98.50;;;;;;5069187;28;20510;-78
2023/05/09 08:08:06;;;;;;;7.20;5.07;;;12.00;97.30;;;;;;5067749;28;20527;-75
2023/05/09 08:10:33;;;;;;;5.90;5.50;;;12.00;97.90;;;;;;5060022;28;20472;-75
2023/05/09 08:13:00;;;;;;;4.67;4.27;;;12.20;98.00;;;;;;5067059;28;21001;-76
2023/05/09 08:15:27;;;;;;;7.13;4.30;;;12.30;97.40;;;;;;5058535;28;20847;-75
2023/05/09 08:17:54;;;;;;;5.17;4.77;;;12.40;97.60;;;;;;5066224;28;20789;-75
2023/05/09 08:20:21;;;;;;;5.70;5.20;;;12.80;96.80;;;;;;5058873;28;20513;-75
2023/05/09 08:22:49;;;;;;;5.70;5.00;;;12.80;97.60;;;;;;5067240;28;20510;-78
2023/05/09 08:25:17;;;;;;;6.33;5.83;;;13.20;95.80;;;;;;5064316;28;20514;-77
2023/05/09 08:27:44;;;;;;;9.70;5.70;;;13.30;97.10;;;;;;5067570;28;20938;-77
2023/05/09 08:30:12;;;;;;;6.67;5.80;;;13.30;98.40;;;;;;5062065;28;20941;-78
2023/05/09 08:32:39;;;;;;;5.60;5.10;;;13.60;97.50;;;;;;5066504;28;20448;-77
2023/05/09 08:35:07;;;;;;;7.60;4.60;;;13.60;97.00;;;;;;5066355;28;20929;-77
2023/05/09 08:37:34;;;;;;;5.70;5.23;;;13.60;96.30;;;;;;5065512;28;20467;-77
2023/05/09 08:40:05;;;;;;;5.53;5.03;;;13.40;96.70;;;;;;5064642;28;20444;-76
2023/05/09 08:42:36;;;;;;;4.87;4.50;;;13.70;96.20;;;;;;5066349;28;20490;-79
2023/05/09 08:45:08;;;;;;;6.47;5.87;;;14.20;97.40;;;;;;5066088;28;20550;-79
2023/05/09 08:47:37;;;;;;;5.50;5.00;;;14.40;97.60;;;;;;5066808;28;20497;-81
2023/05/09 08:50:05;;;;;;;6.53;5.87;;;14.30;94.40;;;;;;5065454;28;20461;-77
2023/05/09 08:52:33;;;;;;;6.47;5.40;;;14.00;96.00;;;;;;5053530;28;20560;-80
2023/05/09 08:55:00;;;;;;;5.77;5.33;;;14.10;96.20;;;;;;5063867;28;20953;-77
2023/05/09 08:57:28;;;;;;;5.97;5.37;;;14.30;97.10;;;;;;5063782;28;20452;-77
2023/05/09 08:59:56;;;;;;;6.97;5.33;;;14.30;95.90;;;;;;5066409;28;20440;-77
2023/05/09 09:02:23;;;;;;;5.33;4.83;;;14.40;96.80;;;;;;5064774;28;20484;-77
2023/05/09 09:04:50;;;;;;;6.47;5.90;;;14.60;94.50;;;;;;5061799;28;20460;-77
2023/05/09 09:07:18;;;;;;;6.33;5.73;;;14.80;95.10;;;;;;5064639;28;20927;-79
2023/05/09 09:09:47;;;;;;;6.87;6.23;;;14.40;95.00;;;;;;5062574;28;20493;-78
2023/05/09 09:12:16;;;;;;;6.93;6.17;;;14.30;96.70;;;;;;5066370;28;20448;-79
2023/05/09 09:14:49;;;;;;;6.27;5.67;;;13.70;96.40;;;;;;5056135;28;20932;-77
2023/05/09 09:17:19;;;;;;;6.97;6.40;;;13.80;96.70;;;;;;5060810;28;20855;-77
2023/05/09 09:19:49;;;;;;;9.43;7.00;;;13.90;97.00;;;;;;5065734;28;20447;-76
2023/05/09 09:22:19;;;;;;;6.90;5.70;;;13.70;96.20;;;;;;5066046;28;20483;-77
2023/05/09 09:24:47;;;;;;;12.40;7.10;;;13.70;97.00;;;;;;5065157;28;20468;-77
2023/05/09 09:27:14;;;;;;;6.37;5.77;;;13.80;98.20;;;;;;5064889;28;20797;-77
2023/05/09 09:29:41;;;;;;;5.50;5.07;;;14.00;96.90;;;;;;5061034;28;20468;-77
2023/05/09 09:32:09;;;;;;;9.20;6.77;;;14.10;96.60;;;;;;5066096;28;20875;-77
2023/05/09 09:34:37;;;;;;;7.83;7.10;;;14.10;96.50;;;;;;5066035;28;20460;-77
2023/05/09 09:37:06;;;;;;;7.67;6.97;;;14.00;97.50;;;;;;5067205;28;20939;-77
2023/05/09 09:39:33;;;;;;;7.53;6.77;;;14.20;96.50;;;;;;5060676;28;20486;-79
2023/05/09 09:42:10;;;;;;;7.30;6.47;;;14.40;96.50;;;;;;5062493;28;20484;-79
2023/05/09 09:44:37;;;;;;;8.10;7.40;;;14.80;96.90;;;;;;5066656;28;20460;-77
2023/05/09 09:47:07;;;;;;;7.37;6.83;;;14.90;97.50;;;;;;5065856;28;20463;-77
2023/05/09 09:49:35;;;;;;;8.40;6.03;;;15.20;94.60;;;;;;5064932;28;20468;-77
2023/05/09 09:52:02;;;;;;;8.63;7.83;;;15.20;95.50;;;;;;5058300;28;20453;-80
2023/05/09 09:54:31;;;;;;;7.70;7.00;;;15.70;96.50;;;;;;5054621;28;20513;-77
2023/05/09 09:56:58;;;;;;;7.20;6.47;;;15.90;95.60;;;;;;5067277;28;20850;-77
2023/05/09 09:59:27;;;;;;;6.60;5.87;;;15.50;93.70;;;;;;5067582;28;20514;-77
2023/05/09 10:01:59;;;;;;;7.37;6.77;;;15.60;95.10;;;;;;5067803;28;20483;-77
2023/05/09 10:04:29;;;;;;;8.63;7.73;;;15.80;98.50;;;;;;5060729;28;21054;-77
2023/05/09 10:06:58;;;;;;;8.73;6.97;;;16.10;96.60;;;;;;5069184;28;20436;-78
2023/05/09 10:09:27;;;;;;;7.33;6.73;;;16.00;97.80;;;;;;5066126;28;20468;-79
2023/05/09 10:11:55;;;;;;;8.77;7.73;;;15.80;95.20;;;;;;5064865;28;20506;-77
2023/05/09 10:14:24;;;;;;;9.90;7.67;;;15.90;96.20;;;;;;5054906;28;20514;-79
2023/05/09 10:16:56;;;;;;;8.13;7.33;;;15.90;96.80;;;;;;5066579;28;20472;-79
2023/05/09 10:19:25;;;;;;;6.27;5.77;;;15.70;95.10;;;;;;5062430;28;20437;-77
2023/05/09 10:21:54;;;;;;;7.10;6.40;;;16.00;96.90;;;;;;5060995;28;20866;-77
2023/05/09 10:24:28;;;;;;;9.30;6.63;;;16.20;96.60;;;;;;5055286;28;20939;-80
2023/05/09 10:27:03;;;;;;;7.40;6.70;;;16.40;93.90;;;;;;5061190;28;21222;-80
2023/05/09 10:29:34;;;;;;;7.40;6.73;;;16.30;95.10;;;;;;5061695;28;20458;-76
2023/05/09 10:32:07;;;;;;;8.43;7.60;;;16.50;95.00;;;;;;5059308;28;20452;-79
2023/05/09 10:34:38;;;;;;;9.50;8.53;;;16.50;96.50;;;;;;5056347;28;20507;-77
2023/05/09 10:37:05;;;;;;;8.10;7.40;;;16.40;94.70;;;;;;5062451;28;20932;-77
2023/05/09 10:39:35;;;;;;;8.27;6.87;;;16.60;94.40;;;;;;5058331;28;20551;-77
2023/05/09 10:42:03;;;;;;;8.80;6.70;;;16.50;96.00;;;;;;5063161;28;20480;-77
2023/05/09 10:44:29;;;;;;;7.77;7.07;;;16.70;95.20;;;;;;5062179;28;20912;-77
2023/05/09 10:46:57;;;;;;;9.53;7.70;;;16.60;94.10;;;;;;5065184;28;20936;-79
2023/05/09 10:49:24;;;;;;;8.30;7.23;;;17.10;95.30;;;;;;5064630;28;20533;-77
2023/05/09 10:51:51;;;;;;;7.20;6.57;;;17.20;94.50;;;;;;5059265;28;21027;-77
2023/05/09 10:54:27;;;;;;;13.23;6.47;;;17.30;93.90;;;;;;5058918;28;20943;-79
2023/05/09 10:56:56;;;;;;;7.20;6.60;;;17.70;93.10;;;;;;5060817;28;20570;-77
2023/05/09 10:59:37;;;;;;;10.50;6.70;;;17.80;92.60;;;;;;5068557;28;20985;-80
2023/05/09 11:02:05;;;;;;;6.23;5.73;;;17.60;91.10;;;;;;5057540;28;20836;-77
2023/05/09 11:04:32;;;;;;;6.53;5.93;;;17.20;92.40;;;;;;5052970;28;20855;-78
2023/05/09 11:07:00;;;;;;;6.73;6.13;;;17.40;93.40;;;;;;5063567;28;20453;-79
2023/05/09 11:09:31;;;;;;;11.23;6.30;;;17.70;91.80;;;;;;5056547;28;20519;-77
2023/05/09 11:12:07;;;;;;;7.07;6.43;;;17.80;91.20;;;;;;5067276;28;20973;-77
2023/05/09 11:14:39;;;;;;;10.90;8.33;;;18.10;91.70;;;;;;5073640;28;20986;-77
2023/05/09 11:17:08;;;;;;;8.17;6.40;;;17.80;91.10;;;;;;5069565;28;20917;-77
2023/05/09 11:19:58;;;;;;;8.20;6.30;;;17.80;91.50;;;;;;5066049;28;20878;-77
2023/05/09 11:22:27;;;;;;;5.53;5.13;;;17.80;90.20;;;;;;5062514;28;20484;-77
2023/05/09 11:25:03;;;;;;;7.17;6.60;;;17.90;91.20;;;;;;5054174;28;20447;-77
2023/05/09 11:27:41;;;;;;;6.70;5.60;;;18.40;87.70;;;;;;5064422;28;20445;-77
2023/05/09 11:30:09;;;;;;;8.97;8.00;;;18.40;91.60;;;;;;5062565;28;20463;-80
2023/05/09 11:32:43;;;;;;;6.30;5.80;;;18.40;90.50;;;;;;5053469;28;20517;-79
2023/05/09 11:35:13;;;;;;;7.97;6.03;;;18.60;87.40;;;;;;5060678;28;20463;-77
2023/05/09 11:37:46;;;;;;;5.83;5.33;;;18.70;89.70;;;;;;5065357;28;20495;-77
2023/05/09 11:40:16;;;;;;;6.63;5.53;;;18.60;90.30;;;;;;5060794;28;20440;-78
2023/05/09 11:42:45;;;;;;;7.00;5.00;;;18.80;90.50;;;;;;5067611;28;20484;-80
2023/05/09 11:45:13;;;;;;;5.90;5.40;;;18.80;85.80;;;;;;5067925;28;20525;-76
2023/05/09 11:47:40;;;;;;;7.83;6.40;;;18.80;90.30;;;;;;5060626;28;20527;-77
2023/05/09 11:50:08;;;;;;;7.03;6.43;;;19.20;84.30;;;;;;5052236;28;20498;-77
2023/05/09 11:52:37;;;;;;;6.57;5.87;;;19.40;84.90;;;;;;5055707;28;20981;-76
2023/05/09 11:55:06;;;;;;;6.77;6.07;;;19.20;87.80;;;;;;5059862;28;20433;-77
2023/05/09 11:57:33;;;;;;;6.60;6.00;;;19.10;87.40;;;;;;5063241;28;20462;-79
2023/05/09 12:00:04;;;;;;;5.13;4.73;;;19.20;85.80;;;;;;5067420;28;20445;-81
2023/05/09 12:02:33;;;;;;;6.37;5.83;;;19.00;89.20;;;;;;5053272;28;20503;-77
2023/05/09 12:05:08;;;;;;;6.37;5.87;;;18.80;87.40;;;;;;5054548;28;20451;-81
2023/05/09 12:07:36;;;;;;;5.17;4.73;;;18.90;87.20;;;;;;5050968;28;21037;-78
2023/05/09 12:10:06;;;;;;;7.80;5.50;;;18.90;86.70;;;;;;5058245;28;20437;-78
2023/05/09 12:12:35;;;;;;;6.80;6.23;;;19.00;86.80;;;;;;5064716;28;20463;-79
2023/05/09 12:15:08;;;;;;;5.97;5.43;;;19.10;90.20;;;;;;5067803;28;20441;-77
2023/05/09 12:17:35;;;;;;;7.33;6.13;;;19.30;84.20;;;;;;5067111;28;20448;-78
2023/05/09 12:20:03;;;;;;;6.57;5.97;;;19.20;87.30;;;;;;5067678;28;20440;-79
2023/05/09 12:22:30;;;;;;;5.57;5.00;;;18.80;83.20;;;;;;5066558;28;20540;-76
2023/05/09 12:25:01;;;;;;;4.40;4.00;;;19.00;86.00;;;;;;5064974;28;20531;-82
2023/05/09 12:27:29;;;;;;;5.60;4.60;;;19.40;81.80;;;;;;5060849;28;20494;-77
2023/05/09 12:29:56;;;;;;;4.97;4.57;;;19.60;82.70;;;;;;5062201;28;20455;-77
2023/05/09 12:32:30;;;;;;;4.17;3.87;;;19.30;83.60;;;;;;5065543;28;20467;-81
2023/05/09 12:34:57;;;;;;;6.30;5.67;;;19.20;84.10;;;;;;5063463;28;20448;-78
2023/05/09 12:37:24;;;;;;;7.00;5.23;;;19.20;84.50;;;;;;5068041;28;20463;-76
2023/05/09 12:40:02;;;;;;;5.57;5.07;;;19.40;81.20;;;;;;5066486;28;20861;-79
2023/05/09 12:42:29;;;;;;;6.07;5.67;;;19.50;83.80;;;;;;5060798;28;20476;-78
2023/05/09 12:44:57;;;;;;;9.20;4.97;;;19.30;85.00;;;;;;5061903;28;20918;-81
2023/05/09 12:47:28;;;;;;;8.40;5.17;;;19.30;85.90;;;;;;5049648;28;20437;-77
2023/05/09 12:49:58;;;;;;;4.57;3.70;;;19.50;85.00;;;;;;5051189;28;20481;-78
2023/05/09 12:52:25;;;;;;;5.90;3.63;;;19.60;82.70;;;;;;5055857;28;20506;-77
2023/05/09 12:54:53;;;;;;;4.63;4.20;;;19.80;80.10;;;;;;5058283;28;20452;-80
2023/05/09 12:57:26;;;;;;;3.87;3.57;;;20.00;82.00;;;;;;5060072;28;20484;-77
2023/05/09 12:59:58;;;;;;;4.70;4.30;;;19.90;80.30;;;;;;5063834;28;20472;-78